Time;durP1;ratioP1;P1;durP2;ratioP2;P2;SDS_P1;SDS_P2;PMS_P1;PMS_P2;Temp;Humidity;BMP_temperature;BMP_pressure;BME280_temperature;BME280_humidity;BME280_pressure;Samples;Min_cycle;Max_cycle;Signal;HPM_P1;HPM_P2
2022/06/19 00:01:28;;;;;;;25.77;24.27;;;;;;;;;;5014351;28;20481;-77
2022/06/19 00:03:57;;;;;;;24.30;22.90;;;;;;;;;;5014016;28;20455;-77
2022/06/19 00:06:26;;;;;;;26.03;24.43;;;;;;;;;;5013979;28;20416;-77
2022/06/19 00:08:53;;;;;;;25.77;24.17;;;;;;;;;;5014013;28;21079;-78
2022/06/19 00:11:21;;;;;;;25.30;23.80;;;;;;;;;;5014317;28;20476;-77
2022/06/19 00:13:48;;;;;;;24.63;23.13;;;;;;;;;;5014296;28;20500;-77
2022/06/19 00:16:16;;;;;;;23.40;22.10;;;;;;;;;;5014162;28;20404;-78
2022/06/19 00:18:43;;;;;;;24.53;23.07;;;;;;;;;;5013991;28;20820;-78
2022/06/19 00:21:11;;;;;;;25.53;24.03;;;;;;;;;;5014100;28;20416;-78
2022/06/19 00:23:40;;;;;;;25.77;24.27;;;;;;;;;;5014069;28;20534;-78
2022/06/19 00:26:07;;;;;;;25.30;23.77;;;;;;;;;;5013714;28;20902;-78
2022/06/19 00:28:35;;;;;;;25.70;23.40;;;;;;;;;;5013544;28;20416;-77
2022/06/19 00:31:02;;;;;;;26.07;24.37;;;;;;;;;;5013778;28;20448;-78
2022/06/19 00:33:29;;;;;;;25.00;23.40;;;;;;;;;;5013602;28;20898;-77
2022/06/19 00:35:56;;;;;;;26.23;24.50;;;;;;;;;;5013796;28;20412;-78
2022/06/19 00:38:24;;;;;;;24.83;23.33;;;;;;;;;;5013077;28;20496;-77
2022/06/19 00:40:55;;;;;;;26.20;24.40;;;;;;;;;;5013474;28;20418;-77
2022/06/19 00:43:23;;;;;;;25.90;24.30;;;;;;;;;;5013467;28;20467;-78
2022/06/19 00:45:50;;;;;;;26.00;24.10;;;;;;;;;;5013662;28;20416;-78
2022/06/19 00:48:20;;;;;;;24.70;23.30;;;;;;;;;;5013577;28;20424;-78
2022/06/19 00:50:48;;;;;;;24.50;22.90;;;;;;;;;;5013359;28;20419;-78
2022/06/19 00:53:18;;;;;;;24.13;22.73;;;;;;;;;;5013242;28;20441;-78
2022/06/19 00:55:47;;;;;;;25.13;23.57;;;;;;;;;;5013174;28;20849;-78
2022/06/19 00:58:18;;;;;;;24.50;23.07;;;;;;;;;;5013135;28;20445;-77
2022/06/19 01:00:47;;;;;;;25.40;23.60;;;;;;;;;;5013155;28;20416;-78
2022/06/19 01:03:16;;;;;;;24.53;22.90;;;;;;;;;;5013225;28;20455;-78
2022/06/19 01:05:45;;;;;;;24.90;23.40;;;;;;;;;;5013186;28;20478;-78
2022/06/19 01:08:12;;;;;;;24.13;22.33;;;;;;;;;;5012901;28;20454;-78
2022/06/19 01:10:43;;;;;;;24.33;22.83;;;;;;;;;;5012983;28;20419;-78
2022/06/19 01:13:10;;;;;;;23.97;22.57;;;;;;;;;;5012923;28;20442;-78
2022/06/19 01:15:40;;;;;;;25.43;23.70;;;;;;;;;;5013267;28;20412;-78
2022/06/19 01:18:09;;;;;;;24.63;22.70;;;;;;;;;;5012821;28;20441;-78
2022/06/19 01:20:37;;;;;;;24.20;22.90;;;;;;;;;;5013116;28;20411;-77
2022/06/19 01:23:09;;;;;;;23.37;21.77;;;;;;;;;;5012693;28;20496;-77
2022/06/19 01:25:39;;;;;;;24.20;22.70;;;;;;;;;;5012753;28;20507;-77
2022/06/19 01:30:54;;;;;;;22.40;21.10;;;;;;;;;;5012701;28;20411;-78
2022/06/19 01:33:25;;;;;;;23.70;21.77;;;;;;;;;;5013020;28;20469;-78
2022/06/19 01:35:52;;;;;;;23.33;22.10;;;;;;;;;;5012954;28;20468;-78
2022/06/19 01:38:21;;;;;;;23.30;22.00;;;;;;;;;;5012583;28;20492;-78
2022/06/19 01:40:52;;;;;;;24.93;23.43;;;;;;;;;;5012598;28;20449;-77
2022/06/19 01:43:20;;;;;;;23.57;22.07;;;;;;;;;;5012589;28;20900;-77
2022/06/19 01:45:52;;;;;;;24.00;22.50;;;;;;;;;;5012653;28;20903;-77
2022/06/19 01:48:20;;;;;;;23.53;22.13;;;;;;;;;;5012841;28;20407;-78
2022/06/19 01:50:47;;;;;;;23.57;22.07;;;;;;;;;;5012498;28;20767;-77
2022/06/19 01:53:17;;;;;;;23.33;21.93;;;;;;;;;;5012867;28;20442;-77
2022/06/19 01:55:45;;;;;;;22.90;21.60;;;;;;;;;;5012723;28;20407;-77
2022/06/19 01:58:14;;;;;;;23.40;22.10;;;;;;;;;;5012395;28;20437;-77
2022/06/19 02:00:43;;;;;;;22.53;21.33;;;;;;;;;;5012393;28;20445;-78
2022/06/19 02:03:25;;;;;;;23.40;22.10;;;;;;;;;;5012718;28;20492;-77
2022/06/19 02:05:52;;;;;;;22.80;21.50;;;;;;;;;;5016369;28;20920;-77
2022/06/19 02:08:20;;;;;;;22.87;21.57;;;;;;;;;;5016306;28;20441;-77
2022/06/19 02:10:48;;;;;;;23.23;21.33;;;;;;;;;;5016317;28;20437;-77
2022/06/19 02:13:18;;;;;;;23.03;21.83;;;;;;;;;;5016229;28;20407;-77
2022/06/19 02:15:47;;;;;;;24.53;22.70;;;;;;;;;;5016486;28;20460;-77
2022/06/19 02:18:19;;;;;;;24.03;22.27;;;;;;;;;;5016464;28;20412;-77
2022/06/19 02:20:46;;;;;;;22.90;21.60;;;;;;;;;;5016397;28;20451;-77
2022/06/19 02:23:14;;;;;;;22.63;21.33;;;;;;;;;;5016417;28;20513;-77
2022/06/19 02:25:44;;;;;;;22.37;21.00;;;;;;;;;;5015942;28;20791;-77
2022/06/19 02:28:12;;;;;;;21.77;20.57;;;;;;;;;;5016192;28;20445;-77
2022/06/19 02:30:41;;;;;;;22.30;21.00;;;;;;;;;;5015863;28;20791;-77
2022/06/19 02:33:08;;;;;;;23.10;21.90;;;;;;;;;;5015907;28;21013;-77
2022/06/19 02:35:36;;;;;;;22.37;21.03;;;;;;;;;;5015856;28;20412;-77
2022/06/19 02:38:07;;;;;;;22.90;21.50;;;;;;;;;;5015424;28;20459;-77
2022/06/19 02:40:38;;;;;;;23.90;22.33;;;;;;;;;;5015992;28;20423;-77
2022/06/19 02:43:08;;;;;;;22.13;20.93;;;;;;;;;;5015857;28;20476;-77
2022/06/19 02:45:39;;;;;;;23.70;22.20;;;;;;;;;;5016048;28;20427;-77
2022/06/19 02:48:15;;;;;;;22.90;21.70;;;;;;;;;;5015482;28;20443;-77
2022/06/19 02:50:43;;;;;;;22.23;21.03;;;;;;;;;;5015171;28;20452;-77
2022/06/19 02:53:11;;;;;;;23.20;21.90;;;;;;;;;;5015807;28;20504;-77
2022/06/19 02:55:38;;;;;;;22.30;21.07;;;;;;;;;;5015820;28;20445;-78
2022/06/19 02:58:05;;;;;;;22.67;21.27;;;;;;;;;;5015292;28;20906;-77
2022/06/19 03:00:33;;;;;;;23.50;22.10;;;;;;;;;;5015343;28;20419;-77
2022/06/19 03:03:01;;;;;;;23.30;21.90;;;;;;;;;;5014755;28;20473;-77
2022/06/19 03:05:31;;;;;;;22.50;20.93;;;;;;;;;;4997651;28;20511;-77
2022/06/19 03:07:58;;;;;;;23.47;22.10;;;;;;;;;;5015038;28;20934;-77
2022/06/19 03:10:26;;;;;;;23.37;21.77;;;;;;;;;;5015452;28;20444;-77
2022/06/19 03:12:54;;;;;;;22.53;21.13;;;;;;;;;;5015461;28;20449;-77
2022/06/19 03:15:21;;;;;;;23.57;22.27;;;;;;;;;;5014525;28;20437;-77
2022/06/19 03:17:48;;;;;;;23.40;22.10;;;;;;;;;;5015050;28;20923;-77
2022/06/19 03:20:17;;;;;;;23.03;21.73;;;;;;;;;;5015015;28;20930;-77
2022/06/19 03:22:46;;;;;;;23.00;21.67;;;;;;;;;;5015114;28;20474;-77
2022/06/19 03:25:13;;;;;;;23.47;22.07;;;;;;;;;;5015165;28;20451;-77
2022/06/19 03:27:41;;;;;;;22.03;20.73;;;;;;;;;;5014889;28;20445;-77
2022/06/19 03:30:09;;;;;;;23.17;21.83;;;;;;;;;;5015282;28;20441;-77
2022/06/19 03:32:36;;;;;;;22.13;20.83;;;;;;;;;;5014862;28;20919;-77
2022/06/19 03:35:04;;;;;;;22.50;21.30;;;;;;;;;;5014763;28;20985;-78
2022/06/19 03:37:31;;;;;;;22.53;21.23;;;;;;;;;;5014635;28;20408;-83
2022/06/19 03:40:00;;;;;;;22.90;21.40;;;;;;;;;;5014852;28;20517;-82
2022/06/19 03:42:27;;;;;;;22.37;20.90;;;;;;;;;;5015124;28;20412;-77
2022/06/19 03:44:54;;;;;;;22.13;20.83;;;;;;;;;;5014674;28;20467;-77
2022/06/19 03:47:22;;;;;;;21.80;20.60;;;;;;;;;;5014428;28;20412;-78
2022/06/19 03:49:50;;;;;;;22.80;21.10;;;;;;;;;;5014760;28;20420;-82
2022/06/19 03:52:17;;;;;;;23.13;21.63;;;;;;;;;;5014708;28;20444;-82
2022/06/19 03:54:44;;;;;;;21.83;20.63;;;;;;;;;;5014916;28;20460;-82
2022/06/19 03:57:14;;;;;;;21.50;20.20;;;;;;;;;;5014249;28;20419;-82
2022/06/19 03:59:42;;;;;;;22.80;21.50;;;;;;;;;;5014799;28;20412;-82
2022/06/19 04:02:10;;;;;;;21.40;20.30;;;;;;;;;;5014186;28;20501;-82
2022/06/19 04:04:39;;;;;;;20.80;19.57;;;;;;;;;;5014058;28;20882;-83
2022/06/19 04:07:06;;;;;;;21.20;20.00;;;;;;;;;;5014249;28;20799;-83
2022/06/19 04:09:34;;;;;;;21.37;19.97;;;;;;;;;;5014745;28;20437;-82
2022/06/19 04:12:01;;;;;;;21.60;20.20;;;;;;;;;;5014082;28;20468;-82
2022/06/19 04:14:30;;;;;;;20.43;19.33;;;;;;;;;;5014123;28;20425;-82
2022/06/19 04:16:57;;;;;;;22.10;20.90;;;;;;;;;;5013926;28;20420;-83
2022/06/19 04:19:27;;;;;;;21.67;20.47;;;;;;;;;;5014186;28;20900;-82
2022/06/19 04:21:54;;;;;;;21.80;20.70;;;;;;;;;;5014158;28;20501;-82
2022/06/19 04:24:21;;;;;;;20.93;19.83;;;;;;;;;;5014048;28;20474;-82
2022/06/19 04:26:49;;;;;;;21.80;20.60;;;;;;;;;;5013117;28;20445;-82
2022/06/19 04:29:18;;;;;;;22.43;21.23;;;;;;;;;;5014366;28;20545;-83
2022/06/19 04:31:46;;;;;;;23.10;21.83;;;;;;;;;;5013750;28;20466;-84
2022/06/19 04:34:14;;;;;;;23.07;21.57;;;;;;;;;;5014072;28;21019;-82
2022/06/19 04:36:41;;;;;;;22.77;20.87;;;;;;;;;;5013712;28;20440;-82
2022/06/19 04:39:09;;;;;;;22.13;20.80;;;;;;;;;;5013624;28;20550;-82
2022/06/19 04:41:37;;;;;;;21.93;20.73;;;;;;;;;;5013788;28;20416;-81
2022/06/19 04:44:05;;;;;;;23.33;21.90;;;;;;;;;;5013706;28;20563;-82
2022/06/19 04:46:33;;;;;;;23.43;22.00;;;;;;;;;;5013401;28;20442;-83
2022/06/19 04:49:01;;;;;;;22.57;21.27;;;;;;;;;;5013600;28;20420;-80
2022/06/19 04:51:29;;;;;;;22.40;21.10;;;;;;;;;;5013204;28;20422;-78
2022/06/19 04:53:57;;;;;;;23.37;21.77;;;;;;;;;;5031468;28;20443;-82
2022/06/19 04:56:25;;;;;;;22.17;20.87;;;;;;;;;;5032704;28;20403;-80
2022/06/19 04:58:52;;;;;;;23.90;21.93;;;;;;;;;;5033028;28;20444;-81
2022/06/19 05:01:24;;;;;;;23.10;21.50;;;;;;;;;;5033244;28;20436;-83
2022/06/19 05:03:53;;;;;;;23.17;21.37;;;;;;;;;;5033319;28;20935;-82
2022/06/19 05:06:22;;;;;;;23.57;22.17;;;;;;;;;;5032823;28;21008;-79
2022/06/19 05:08:50;;;;;;;24.13;22.77;;;;;;;;;;5032232;28;20418;-76
2022/06/19 05:11:17;;;;;;;23.33;21.67;;;;;;;;;;5019813;28;20923;-82
2022/06/19 05:13:45;;;;;;;23.50;21.90;;;;;;;;;;5012930;28;20415;-82
2022/06/19 05:16:13;;;;;;;22.77;21.27;;;;;;;;;;5013481;28;20415;-80
2022/06/19 05:18:40;;;;;;;23.33;21.73;;;;;;;;;;5012694;28;20412;-80
2022/06/19 05:21:08;;;;;;;23.47;21.77;;;;;;;;;;5013016;28;20408;-80
2022/06/19 05:23:37;;;;;;;24.17;22.50;;;;;;;;;;5012879;28;20415;-80
2022/06/19 05:26:07;;;;;;;24.20;22.20;;;;;;;;;;5013082;28;20412;-80
2022/06/19 05:28:35;;;;;;;22.90;21.27;;;;;;;;;;5012621;28;20418;-80
2022/06/19 05:31:02;;;;;;;22.90;21.07;;;;;;;;;;5013018;28;20415;-81
2022/06/19 05:33:30;;;;;;;24.10;22.00;;;;;;;;;;5012395;28;20491;-80
2022/06/19 05:35:58;;;;;;;23.43;21.43;;;;;;;;;;5012315;28;20441;-81
2022/06/19 05:38:26;;;;;;;22.80;21.00;;;;;;;;;;5011829;28;20455;-80
2022/06/19 05:40:55;;;;;;;23.60;21.50;;;;;;;;;;5012638;28;21122;-77
2022/06/19 05:43:24;;;;;;;24.40;22.50;;;;;;;;;;5012660;28;20404;-83
2022/06/19 05:45:52;;;;;;;23.53;21.83;;;;;;;;;;5012430;28;20466;-83
2022/06/19 05:48:19;;;;;;;23.47;21.77;;;;;;;;;;5012544;28;20419;-82
2022/06/19 05:50:47;;;;;;;23.40;21.53;;;;;;;;;;5012824;28;20451;-82
2022/06/19 05:53:14;;;;;;;24.07;22.07;;;;;;;;;;5012543;28;20437;-82
2022/06/19 05:55:41;;;;;;;23.37;21.23;;;;;;;;;;5012445;28;20527;-82
2022/06/19 05:58:10;;;;;;;24.00;22.00;;;;;;;;;;5012722;28;20491;-83
2022/06/19 06:00:37;;;;;;;22.70;20.97;;;;;;;;;;5012696;28;20903;-82
2022/06/19 06:03:05;;;;;;;23.43;21.60;;;;;;;;;;5012381;28;20411;-82
2022/06/19 06:05:32;;;;;;;22.00;20.40;;;;;;;;;;5012336;28;20497;-82
2022/06/19 06:08:00;;;;;;;22.97;21.03;;;;;;;;;;5012520;28;20419;-82
2022/06/19 06:10:27;;;;;;;22.50;20.70;;;;;;;;;;5012652;28;20452;-82
2022/06/19 06:12:54;;;;;;;22.57;20.87;;;;;;;;;;5012608;28;20433;-81
2022/06/19 06:15:23;;;;;;;21.77;20.30;;;;;;;;;;5012444;28;20437;-82
2022/06/19 06:17:51;;;;;;;22.20;20.70;;;;;;;;;;4994672;28;20457;-82
2022/06/19 06:20:18;;;;;;;22.33;20.50;;;;;;;;;;5012531;28;20404;-82
2022/06/19 06:22:45;;;;;;;22.70;21.00;;;;;;;;;;5012484;28;20439;-83
2022/06/19 06:25:13;;;;;;;22.07;20.40;;;;;;;;;;5012458;28;20463;-82
2022/06/19 06:27:40;;;;;;;22.33;20.60;;;;;;;;;;5012107;28;20786;-82
2022/06/19 06:30:08;;;;;;;23.27;21.17;;;;;;;;;;5012446;28;20423;-82
2022/06/19 06:32:37;;;;;;;22.37;20.60;;;;;;;;;;5012253;28;20435;-82
2022/06/19 06:35:04;;;;;;;22.83;20.93;;;;;;;;;;5012382;28;20420;-83
2022/06/19 06:37:32;;;;;;;22.40;20.57;;;;;;;;;;5012298;28;20472;-83
2022/06/19 06:39:59;;;;;;;22.20;20.43;;;;;;;;;;5012569;28;20484;-82
2022/06/19 06:42:26;;;;;;;21.53;20.07;;;;;;;;;;5023743;28;20406;-83
2022/06/19 06:44:54;;;;;;;21.53;19.87;;;;;;;;;;5032174;28;20863;-82
2022/06/19 06:47:21;;;;;;;22.43;20.43;;;;;;;;;;5032839;28;20444;-83
2022/06/19 06:49:50;;;;;;;21.10;19.43;;;;;;;;;;5033144;28;20502;-83
2022/06/19 06:52:18;;;;;;;21.80;20.27;;;;;;;;;;5035440;28;20939;-83
2022/06/19 06:54:45;;;;;;;22.60;20.97;;;;;;;;;;5035366;28;20933;-83
2022/06/19 06:57:13;;;;;;;22.60;20.90;;;;;;;;;;5035461;28;20415;-83
2022/06/19 06:59:40;;;;;;;22.10;20.50;;;;;;;;;;5035636;28;20440;-82
2022/06/19 07:02:07;;;;;;;22.20;20.70;;;;;;;;;;5035482;28;20440;-83
2022/06/19 07:04:35;;;;;;;22.63;20.90;;;;;;;;;;5035142;28;20897;-83
2022/06/19 07:07:04;;;;;;;21.60;20.20;;;;;;;;;;5034974;28;20411;-82
2022/06/19 07:09:31;;;;;;;22.37;20.63;;;;;;;;;;5035056;28;20937;-82
2022/06/19 07:11:58;;;;;;;22.83;21.13;;;;;;;;;;5034793;28;20448;-82
2022/06/19 07:14:26;;;;;;;21.87;20.03;;;;;;;;;;5034979;28;20937;-82
2022/06/19 07:16:53;;;;;;;23.70;22.00;;;;;;;;;;5034877;28;20445;-83
2022/06/19 07:19:20;;;;;;;22.80;20.90;;;;;;;;;;5034955;28;20428;-82
2022/06/19 07:21:48;;;;;;;21.73;20.40;;;;;;;;;;5034937;28;20489;-83
2022/06/19 07:24:17;;;;;;;24.30;22.20;;;;;;;;;;5034845;28;20419;-82
2022/06/19 07:26:44;;;;;;;24.20;22.13;;;;;;;;;;5034747;28;20422;-83
2022/06/19 07:29:12;;;;;;;21.50;19.90;;;;;;;;;;5035067;28;20761;-83
2022/06/19 07:31:39;;;;;;;22.70;20.90;;;;;;;;;;5034806;28;20915;-82
2022/06/19 07:34:07;;;;;;;22.53;20.60;;;;;;;;;;5034949;28;20865;-83
2022/06/19 07:36:34;;;;;;;22.40;20.80;;;;;;;;;;5034463;28;20850;-83
2022/06/19 07:39:02;;;;;;;22.77;21.10;;;;;;;;;;5034691;28;20490;-82
2022/06/19 07:41:31;;;;;;;22.00;20.30;;;;;;;;;;5034638;28;20912;-83
2022/06/19 07:43:58;;;;;;;23.00;21.03;;;;;;;;;;5034929;28;20415;-83
2022/06/19 07:46:25;;;;;;;22.23;20.47;;;;;;;;;;5034975;28;20455;-83
2022/06/19 07:51:37;;;;;;;23.80;22.00;;;;;;;;;;5034817;28;20899;-83
2022/06/19 07:54:04;;;;;;;23.63;21.63;;;;;;;;;;5034604;28;20803;-82
2022/06/19 07:56:33;;;;;;;24.27;22.43;;;;;;;;;;5032680;28;20502;-83
2022/06/19 07:59:02;;;;;;;24.17;22.47;;;;;;;;;;5034733;28;20440;-82
2022/06/19 08:01:29;;;;;;;24.63;23.03;;;;;;;;;;5034743;28;20448;-83
2022/06/19 08:03:57;;;;;;;26.20;23.63;;;;;;;;;;5034774;28;20415;-70
2022/06/19 08:06:25;;;;;;;23.37;21.67;;;;;;;;;;5034312;28;20478;-72
2022/06/19 08:08:52;;;;;;;23.60;21.80;;;;;;;;;;5034267;28;20455;-72
2022/06/19 08:11:20;;;;;;;23.43;21.73;;;;;;;;;;5033613;28;20440;-72
2022/06/19 08:13:48;;;;;;;25.47;23.40;;;;;;;;;;5034008;28;20422;-71
2022/06/19 08:16:16;;;;;;;23.93;22.13;;;;;;;;;;5034145;28;20762;-73
2022/06/19 08:18:43;;;;;;;22.93;21.13;;;;;;;;;;5033911;28;20414;-75
2022/06/19 08:21:10;;;;;;;23.27;21.63;;;;;;;;;;5033735;28;20447;-76
2022/06/19 08:23:37;;;;;;;22.40;20.90;;;;;;;;;;5033604;28;20448;-76
2022/06/19 08:26:05;;;;;;;23.43;21.90;;;;;;;;;;5033448;28;20893;-75
2022/06/19 08:28:39;;;;;;;23.43;21.37;;;;;;;;;;5033659;28;20446;-76
2022/06/19 08:31:08;;;;;;;23.07;21.50;;;;;;;;;;5033670;28;20534;-75
2022/06/19 08:33:35;;;;;;;22.73;20.97;;;;;;;;;;5033830;28;20466;-78
2022/06/19 08:36:04;;;;;;;23.80;21.77;;;;;;;;;;5033308;28;20448;-75
2022/06/19 08:38:34;;;;;;;23.27;21.63;;;;;;;;;;5033515;28;20487;-75
2022/06/19 08:41:06;;;;;;;23.83;22.27;;;;;;;;;;5033458;28;20435;-75
2022/06/19 08:43:41;;;;;;;22.03;20.60;;;;;;;;;;5033723;28;20414;-75
2022/06/19 08:46:17;;;;;;;23.10;21.70;;;;;;;;;;5033543;28;20487;-75
2022/06/19 08:48:48;;;;;;;23.33;21.43;;;;;;;;;;5033300;28;20494;-75
2022/06/19 08:51:20;;;;;;;23.10;21.30;;;;;;;;;;5033263;28;20430;-75
2022/06/19 08:53:55;;;;;;;22.97;21.20;;;;;;;;;;5033529;28;20961;-75
2022/06/19 08:56:26;;;;;;;23.30;21.80;;;;;;;;;;5033161;28;20472;-75
2022/06/19 08:58:58;;;;;;;22.23;20.73;;;;;;;;;;5033224;28;20439;-76
2022/06/19 09:01:32;;;;;;;23.80;22.10;;;;;;;;;;5033300;28;20444;-75
2022/06/19 09:06:53;;;;;;;22.00;20.60;;;;;;;;;;5032857;28;21075;-75
2022/06/19 09:09:31;;;;;;;23.03;21.53;;;;;;;;;;5033222;28;20418;-75
2022/06/19 09:12:06;;;;;;;23.70;22.00;;;;;;;;;;5032544;28;20426;-75
2022/06/19 09:14:37;;;;;;;23.27;21.77;;;;;;;;;;5033064;28;20417;-75
2022/06/19 09:17:11;;;;;;;22.93;21.20;;;;;;;;;;5032731;28;20885;-77
2022/06/19 09:19:47;;;;;;;23.83;22.13;;;;;;;;;;5033094;28;20451;-79
2022/06/19 09:22:19;;;;;;;23.37;21.77;;;;;;;;;;5032643;28;20476;-75
2022/06/19 09:24:57;;;;;;;23.87;22.30;;;;;;;;;;5032848;28;20447;-75
2022/06/19 09:27:27;;;;;;;23.20;21.53;;;;;;;;;;5032649;28;20410;-75
2022/06/19 09:29:56;;;;;;;23.20;21.30;;;;;;;;;;5032684;28;20421;-75
2022/06/19 09:32:28;;;;;;;24.80;23.10;;;;;;;;;;5032929;28;20423;-75
2022/06/19 09:34:58;;;;;;;23.60;22.03;;;;;;;;;;5032656;28;20422;-75
2022/06/19 09:37:29;;;;;;;23.30;21.70;;;;;;;;;;5032768;28;20417;-76
2022/06/19 09:40:00;;;;;;;22.80;21.30;;;;;;;;;;5032497;28;20542;-76
2022/06/19 09:42:29;;;;;;;24.03;21.90;;;;;;;;;;5032846;28;20490;-75
2022/06/19 09:44:59;;;;;;;24.10;22.60;;;;;;;;;;5032757;28;20491;-75
2022/06/19 09:47:30;;;;;;;25.10;23.10;;;;;;;;;;5032436;28;20773;-75
2022/06/19 09:49:59;;;;;;;22.50;21.00;;;;;;;;;;5032635;28;20502;-75
2022/06/19 09:52:29;;;;;;;23.40;21.60;;;;;;;;;;5032804;28;20933;-75
2022/06/19 09:54:57;;;;;;;22.47;20.93;;;;;;;;;;5032780;28;20407;-75
2022/06/19 09:57:28;;;;;;;23.70;21.90;;;;;;;;;;5032676;28;20437;-75
2022/06/19 09:59:58;;;;;;;23.23;21.73;;;;;;;;;;5032637;28;20907;-75
2022/06/19 10:02:34;;;;;;;23.87;22.07;;;;;;;;;;5032660;28;20446;-75
2022/06/19 10:05:07;;;;;;;22.53;21.03;;;;;;;;;;5032171;28;20788;-75
2022/06/19 10:07:37;;;;;;;22.90;21.50;;;;;;;;;;5032405;28;20448;-75
2022/06/19 10:10:11;;;;;;;23.67;22.07;;;;;;;;;;5032256;28;20820;-75
2022/06/19 10:12:42;;;;;;;23.43;21.77;;;;;;;;;;5032690;28;20407;-75
2022/06/19 10:15:15;;;;;;;23.17;21.60;;;;;;;;;;5032508;28;20436;-75
2022/06/19 10:17:47;;;;;;;23.60;22.00;;;;;;;;;;5032455;28;20516;-75
2022/06/19 10:20:17;;;;;;;23.93;22.00;;;;;;;;;;5032170;28;20465;-75
2022/06/19 10:22:49;;;;;;;24.10;22.40;;;;;;;;;;5032035;28;20478;-75
2022/06/19 10:25:40;;;;;;;23.83;22.33;;;;;;;;;;5034080;28;20418;-75
2022/06/19 10:28:15;;;;;;;24.03;22.13;;;;;;;;;;5016435;28;20831;-75
2022/06/19 10:30:48;;;;;;;24.10;22.17;;;;;;;;;;5035870;28;20410;-75
2022/06/19 10:33:20;;;;;;;23.57;21.67;;;;;;;;;;5036138;28;20448;-74
2022/06/19 10:35:51;;;;;;;24.43;22.73;;;;;;;;;;5036077;28;20490;-76
2022/06/19 10:38:39;;;;;;;24.23;22.57;;;;;;;;;;5035414;28;20758;-75
2022/06/19 10:42:00;;;;;;;23.93;22.33;;;;;;;;;;5035672;28;20402;-75
2022/06/19 10:44:02;;;;;;;23.23;21.60;;;;;;;;;;5035543;28;20436;-75
2022/06/19 10:46:30;;;;;;;23.37;21.73;;;;;;;;;;5035749;28;20481;-75
2022/06/19 10:49:03;;;;;;;24.20;22.50;;;;;;;;;;5035936;28;20436;-75
2022/06/19 10:51:50;;;;;;;23.83;21.93;;;;;;;;;;5035758;28;20476;-75
2022/06/19 10:54:23;;;;;;;24.50;22.90;;;;;;;;;;5035430;28;20888;-75
2022/06/19 10:56:53;;;;;;;25.20;23.33;;;;;;;;;;5035721;28;20459;-75
2022/06/19 10:59:21;;;;;;;22.80;21.37;;;;;;;;;;5035420;28;20451;-74
2022/06/19 11:04:52;;;;;;;24.43;22.97;;;;;;;;;;4974271;28;20808;-75
2022/06/19 11:07:22;;;;;;;24.33;22.60;;;;;;;;;;4973937;28;20826;-75
2022/06/19 11:09:51;;;;;;;23.10;21.50;;;;;;;;;;4974201;28;20839;-75
2022/06/19 11:12:20;;;;;;;23.73;22.10;;;;;;;;;;4974192;28;20417;-75
2022/06/19 11:14:50;;;;;;;24.67;22.93;;;;;;;;;;4974006;28;20426;-75
2022/06/19 11:17:18;;;;;;;23.00;21.30;;;;;;;;;;4973938;28;20410;-74
2022/06/19 11:19:46;;;;;;;24.37;22.57;;;;;;;;;;4973828;28;20813;-75
2022/06/19 11:22:27;;;;;;;24.10;22.47;;;;;;;;;;4973773;28;21087;-74
2022/06/19 11:24:58;;;;;;;24.70;22.83;;;;;;;;;;4973892;28;20430;-75
2022/06/19 11:27:26;;;;;;;23.73;21.93;;;;;;;;;;4973764;28;20498;-76
2022/06/19 11:29:55;;;;;;;24.00;22.13;;;;;;;;;;4973795;28;20406;-75
2022/06/19 11:32:24;;;;;;;25.33;23.50;;;;;;;;;;4973680;28;20433;-75
2022/06/19 11:35:00;;;;;;;24.23;22.20;;;;;;;;;;4973636;28;20455;-75
2022/06/19 11:37:30;;;;;;;22.73;21.10;;;;;;;;;;4971933;28;20412;-75
2022/06/19 11:40:13;;;;;;;23.77;22.07;;;;;;;;;;4987780;28;20503;-75
2022/06/19 11:42:46;;;;;;;23.40;21.80;;;;;;;;;;5034479;28;20843;-76
2022/06/19 11:45:22;;;;;;;23.70;22.00;;;;;;;;;;5034440;28;20418;-76
2022/06/19 11:47:59;;;;;;;23.17;21.50;;;;;;;;;;5034565;28;20495;-76
2022/06/19 11:50:28;;;;;;;23.70;21.83;;;;;;;;;;5034425;28;20407;-75
2022/06/19 11:53:01;;;;;;;22.80;21.20;;;;;;;;;;5034322;28;20832;-75
2022/06/19 11:55:31;;;;;;;22.63;21.03;;;;;;;;;;5034391;28;20436;-75
2022/06/19 11:58:00;;;;;;;24.27;22.03;;;;;;;;;;5034262;28;20419;-77
2022/06/19 12:00:29;;;;;;;23.13;21.43;;;;;;;;;;5034504;28;20419;-75
2022/06/19 12:02:58;;;;;;;25.07;23.27;;;;;;;;;;5034126;28;20443;-75
2022/06/19 12:05:28;;;;;;;25.03;22.93;;;;;;;;;;5034065;28;20976;-76
2022/06/19 12:07:56;;;;;;;24.17;22.27;;;;;;;;;;5034046;28;20458;-76
2022/06/19 12:10:26;;;;;;;23.33;21.70;;;;;;;;;;5034000;28;20444;-76
2022/06/19 12:12:54;;;;;;;24.97;23.30;;;;;;;;;;5033923;28;20915;-76
2022/06/19 12:15:24;;;;;;;24.30;22.70;;;;;;;;;;5033928;28;20418;-76
2022/06/19 12:17:57;;;;;;;24.23;22.37;;;;;;;;;;5034110;28;20448;-75
2022/06/19 12:20:26;;;;;;;24.20;22.60;;;;;;;;;;5033547;28;20892;-76
2022/06/19 12:22:56;;;;;;;23.50;22.10;;;;;;;;;;5033712;28;20476;-76
2022/06/19 12:25:35;;;;;;;24.20;22.60;;;;;;;;;;5033678;28;20535;-76
2022/06/19 12:28:06;;;;;;;24.40;22.80;;;;;;;;;;5033803;28;20459;-75
2022/06/19 12:30:35;;;;;;;24.63;22.80;;;;;;;;;;5033779;28;20419;-76
2022/06/19 12:33:04;;;;;;;24.43;22.60;;;;;;;;;;5033549;28;20429;-76
2022/06/19 12:35:33;;;;;;;24.60;22.80;;;;;;;;;;5033592;28;20454;-75
2022/06/19 12:38:01;;;;;;;24.10;22.60;;;;;;;;;;5033240;28;20413;-76
2022/06/19 12:40:33;;;;;;;24.20;22.40;;;;;;;;;;5033778;28;20440;-76
2022/06/19 12:43:04;;;;;;;24.37;22.23;;;;;;;;;;5033805;28;20436;-75
2022/06/19 12:45:38;;;;;;;23.63;21.90;;;;;;;;;;5033388;28;20855;-75
2022/06/19 12:48:11;;;;;;;24.33;22.53;;;;;;;;;;5014806;28;20487;-76
2022/06/19 12:50:44;;;;;;;24.23;22.50;;;;;;;;;;5033642;28;20422;-76
2022/06/19 12:53:20;;;;;;;23.40;21.90;;;;;;;;;;5015559;28;20431;-76
2022/06/19 12:55:54;;;;;;;23.70;21.87;;;;;;;;;;5033414;28;20418;-76
2022/06/19 12:58:33;;;;;;;23.73;22.13;;;;;;;;;;5033585;28;20406;-75
2022/06/19 13:01:01;;;;;;;24.03;22.40;;;;;;;;;;5033496;28;20817;-76
2022/06/19 13:03:37;;;;;;;23.80;22.40;;;;;;;;;;5033429;28;20426;-76
2022/06/19 13:06:09;;;;;;;24.63;22.73;;;;;;;;;;5032791;28;20464;-76
2022/06/19 13:08:41;;;;;;;24.70;22.90;;;;;;;;;;5033330;28;20481;-76
2022/06/19 13:11:19;;;;;;;25.00;23.27;;;;;;;;;;5033066;28;20407;-77
2022/06/19 13:14:01;;;;;;;24.50;23.00;;;;;;;;;;5032557;28;20812;-78
2022/06/19 13:16:34;;;;;;;24.23;22.67;;;;;;;;;;5032654;28;20522;-77
2022/06/19 13:19:05;;;;;;;24.43;22.60;;;;;;;;;;5032457;28;20472;-77
2022/06/19 13:21:42;;;;;;;24.67;22.80;;;;;;;;;;5032579;28;20501;-76
2022/06/19 13:24:15;;;;;;;23.20;21.63;;;;;;;;;;5032798;28;20476;-77
2022/06/19 13:29:39;;;;;;;24.07;22.37;;;;;;;;;;5032841;28;20435;-77
2022/06/19 13:32:13;;;;;;;24.90;23.30;;;;;;;;;;5032743;28;20432;-76
2022/06/19 13:34:49;;;;;;;24.00;22.27;;;;;;;;;;5033018;28;20432;-74
2022/06/19 13:37:19;;;;;;;23.73;22.23;;;;;;;;;;5032717;28;20428;-75
2022/06/19 13:39:49;;;;;;;25.00;23.27;;;;;;;;;;5032349;28;20447;-74
2022/06/19 13:42:38;;;;;;;24.33;22.77;;;;;;;;;;5032566;28;20411;-74
2022/06/19 13:45:16;;;;;;;24.07;22.50;;;;;;;;;;5024835;28;20434;-74
2022/06/19 13:47:46;;;;;;;24.53;22.73;;;;;;;;;;5032477;28;20495;-79
2022/06/19 13:50:17;;;;;;;24.37;22.87;;;;;;;;;;5030130;28;20446;-81
2022/06/19 13:52:49;;;;;;;24.17;22.57;;;;;;;;;;5015288;28;20451;-80
2022/06/19 13:55:25;;;;;;;23.83;22.33;;;;;;;;;;5032275;28;20422;-81
2022/06/19 13:57:55;;;;;;;24.03;22.40;;;;;;;;;;5014690;28;20459;-80
2022/06/19 14:00:29;;;;;;;25.83;24.07;;;;;;;;;;5036238;28;20455;-81
2022/06/19 14:03:18;;;;;;;23.30;21.90;;;;;;;;;;5036780;28;20431;-74
2022/06/19 14:05:46;;;;;;;24.53;22.63;;;;;;;;;;5034751;28;20418;-73
2022/06/19 14:08:29;;;;;;;24.67;23.03;;;;;;;;;;5019711;28;20831;-73
2022/06/19 14:10:58;;;;;;;23.40;21.77;;;;;;;;;;5013023;28;20973;-73
2022/06/19 14:13:36;;;;;;;24.30;22.80;;;;;;;;;;5018262;28;20412;-84
2022/06/19 14:16:19;;;;;;;24.13;22.63;;;;;;;;;;5018268;28;20825;-83
2022/06/19 14:18:52;;;;;;;23.73;22.33;;;;;;;;;;5000987;28;20473;-84
2022/06/19 14:21:32;;;;;;;24.53;22.80;;;;;;;;;;5018220;28;20849;-84
2022/06/19 14:24:03;;;;;;;24.73;22.93;;;;;;;;;;5018024;28;20436;-85
2022/06/19 14:26:35;;;;;;;24.03;22.47;;;;;;;;;;5018719;28;20441;-85
2022/06/19 14:29:17;;;;;;;25.10;23.30;;;;;;;;;;5017093;28;20411;-78
2022/06/19 14:31:45;;;;;;;24.10;22.60;;;;;;;;;;4996530;28;20464;-75
2022/06/19 14:34:34;;;;;;;25.13;22.83;;;;;;;;;;5015453;28;20440;-74
2022/06/19 14:37:21;;;;;;;22.80;21.40;;;;;;;;;;5016644;28;20431;-82
2022/06/19 14:39:49;;;;;;;23.97;22.50;;;;;;;;;;5017079;28;20492;-85
2022/06/19 14:42:17;;;;;;;25.43;23.50;;;;;;;;;;5017473;28;20441;-84
2022/06/19 14:44:46;;;;;;;23.87;22.47;;;;;;;;;;5033918;28;20426;-85
2022/06/19 14:47:23;;;;;;;24.33;22.53;;;;;;;;;;5037153;28;20476;-84